sensor_id;sensor_type;location;lat;lon;timestamp;P1;durP1;ratioP1;P2;durP2;ratioP2
21305;SDS011;10812;51.838;5.838;2023-07-31T00:02:24;1.67;;;1.07;;
21305;SDS011;10812;51.838;5.838;2023-07-31T00:04:52;1.37;;;1.10;;
21305;SDS011;10812;51.838;5.838;2023-07-31T00:07:20;1.63;;;1.23;;
21305;SDS011;10812;51.838;5.838;2023-07-31T00:09:48;1.67;;;1.50;;
21305;SDS011;10812;51.838;5.838;2023-07-31T00:12:16;1.60;;;1.30;;
21305;SDS011;10812;51.838;5.838;2023-07-31T00:14:45;2.17;;;1.70;;
21305;SDS011;10812;51.838;5.838;2023-07-31T00:17:13;3.33;;;2.20;;
21305;SDS011;10812;51.838;5.838;2023-07-31T00:19:42;6.30;;;3.37;;
21305;SDS011;10812;51.838;5.838;2023-07-31T00:22:12;6.50;;;3.80;;
21305;SDS011;10812;51.838;5.838;2023-07-31T00:24:40;11.33;;;5.00;;
21305;SDS011;10812;51.838;5.838;2023-07-31T00:27:08;10.57;;;5.57;;
21305;SDS011;10812;51.838;5.838;2023-07-31T00:29:36;15.47;;;7.10;;
21305;SDS011;10812;51.838;5.838;2023-07-31T00:32:06;19.27;;;7.23;;
21305;SDS011;10812;51.838;5.838;2023-07-31T00:34:34;17.40;;;8.57;;
21305;SDS011;10812;51.838;5.838;2023-07-31T00:37:02;23.43;;;10.03;;
21305;SDS011;10812;51.838;5.838;2023-07-31T00:39:31;19.33;;;9.43;;
21305;SDS011;10812;51.838;5.838;2023-07-31T00:45:09;26.15;;;10.55;;
21305;SDS011;10812;51.838;5.838;2023-07-31T00:47:38;23.40;;;11.27;;
21305;SDS011;10812;51.838;5.838;2023-07-31T00:50:07;27.45;;;11.45;;
21305;SDS011;10812;51.838;5.838;2023-07-31T00:52:35;29.15;;;11.18;;
21305;SDS011;10812;51.838;5.838;2023-07-31T00:55:04;27.27;;;11.33;;
21305;SDS011;10812;51.838;5.838;2023-07-31T00:57:33;21.92;;;11.48;;
21305;SDS011;10812;51.838;5.838;2023-07-31T01:00:02;24.30;;;10.45;;
21305;SDS011;10812;51.838;5.838;2023-07-31T01:02:30;26.48;;;10.48;;
21305;SDS011;10812;51.838;5.838;2023-07-31T01:05:00;19.75;;;10.38;;
21305;SDS011;10812;51.838;5.838;2023-07-31T01:07:31;29.92;;;11.30;;
21305;SDS011;10812;51.838;5.838;2023-07-31T01:10:08;20.77;;;8.90;;
21305;SDS011;10812;51.838;5.838;2023-07-31T01:12:43;18.25;;;9.45;;
21305;SDS011;10812;51.838;5.838;2023-07-31T01:15:13;18.98;;;8.75;;
21305;SDS011;10812;51.838;5.838;2023-07-31T01:17:41;24.38;;;9.32;;
21305;SDS011;10812;51.838;5.838;2023-07-31T01:20:11;29.40;;;9.95;;
21305;SDS011;10812;51.838;5.838;2023-07-31T01:22:49;24.60;;;9.85;;
21305;SDS011;10812;51.838;5.838;2023-07-31T01:25:45;22.38;;;8.73;;
21305;SDS011;10812;51.838;5.838;2023-07-31T01:28:27;17.20;;;8.40;;
21305;SDS011;10812;51.838;5.838;2023-07-31T01:31:00;18.85;;;8.65;;
21305;SDS011;10812;51.838;5.838;2023-07-31T01:33:32;16.70;;;9.27;;
21305;SDS011;10812;51.838;5.838;2023-07-31T01:36:01;20.17;;;8.70;;
21305;SDS011;10812;51.838;5.838;2023-07-31T01:38:29;20.15;;;8.95;;
21305;SDS011;10812;51.838;5.838;2023-07-31T01:40:58;16.90;;;8.93;;
21305;SDS011;10812;51.838;5.838;2023-07-31T01:43:26;20.17;;;9.40;;
21305;SDS011;10812;51.838;5.838;2023-07-31T01:53:29;14.50;;;8.27;;
21305;SDS011;10812;51.838;5.838;2023-07-31T01:55:59;17.75;;;8.23;;
21305;SDS011;10812;51.838;5.838;2023-07-31T01:58:28;18.10;;;8.55;;
21305;SDS011;10812;51.838;5.838;2023-07-31T02:00:56;13.40;;;7.50;;
21305;SDS011;10812;51.838;5.838;2023-07-31T02:03:24;19.30;;;8.63;;
21305;SDS011;10812;51.838;5.838;2023-07-31T02:05:53;15.40;;;8.27;;
21305;SDS011;10812;51.838;5.838;2023-07-31T02:08:23;19.63;;;8.27;;
21305;SDS011;10812;51.838;5.838;2023-07-31T02:10:51;18.90;;;7.53;;
21305;SDS011;10812;51.838;5.838;2023-07-31T02:13:20;13.67;;;7.37;;
21305;SDS011;10812;51.838;5.838;2023-07-31T02:15:48;19.17;;;7.70;;
21305;SDS011;10812;51.838;5.838;2023-07-31T02:18:16;14.15;;;7.30;;
21305;SDS011;10812;51.838;5.838;2023-07-31T02:20:48;15.60;;;7.38;;
21305;SDS011;10812;51.838;5.838;2023-07-31T02:23:17;16.17;;;7.47;;
21305;SDS011;10812;51.838;5.838;2023-07-31T02:25:45;13.23;;;7.07;;
21305;SDS011;10812;51.838;5.838;2023-07-31T02:28:13;14.52;;;6.85;;
21305;SDS011;10812;51.838;5.838;2023-07-31T02:30:45;15.77;;;7.10;;
21305;SDS011;10812;51.838;5.838;2023-07-31T02:33:14;17.20;;;7.38;;
21305;SDS011;10812;51.838;5.838;2023-07-31T02:35:42;19.37;;;7.63;;
21305;SDS011;10812;51.838;5.838;2023-07-31T02:38:10;16.07;;;7.50;;
21305;SDS011;10812;51.838;5.838;2023-07-31T02:40:38;14.48;;;7.18;;
21305;SDS011;10812;51.838;5.838;2023-07-31T02:43:07;17.93;;;6.93;;
21305;SDS011;10812;51.838;5.838;2023-07-31T02:45:35;18.60;;;7.93;;
21305;SDS011;10812;51.838;5.838;2023-07-31T02:48:04;15.80;;;7.17;;
21305;SDS011;10812;51.838;5.838;2023-07-31T02:50:32;13.83;;;6.30;;
21305;SDS011;10812;51.838;5.838;2023-07-31T02:53:00;13.47;;;6.23;;
21305;SDS011;10812;51.838;5.838;2023-07-31T02:55:28;13.02;;;6.32;;
21305;SDS011;10812;51.838;5.838;2023-07-31T02:57:56;15.98;;;6.63;;
21305;SDS011;10812;51.838;5.838;2023-07-31T03:05:50;17.25;;;6.15;;
21305;SDS011;10812;51.838;5.838;2023-07-31T03:08:19;13.27;;;6.37;;
21305;SDS011;10812;51.838;5.838;2023-07-31T03:10:47;17.77;;;6.13;;
21305;SDS011;10812;51.838;5.838;2023-07-31T03:13:15;19.70;;;6.45;;
21305;SDS011;10812;51.838;5.838;2023-07-31T03:15:43;14.30;;;5.93;;
21305;SDS011;10812;51.838;5.838;2023-07-31T03:18:11;13.57;;;5.53;;
21305;SDS011;10812;51.838;5.838;2023-07-31T03:20:41;13.05;;;6.22;;
21305;SDS011;10812;51.838;5.838;2023-07-31T03:23:11;14.07;;;6.33;;
21305;SDS011;10812;51.838;5.838;2023-07-31T03:25:41;12.65;;;6.25;;
21305;SDS011;10812;51.838;5.838;2023-07-31T03:28:22;11.27;;;5.40;;
21305;SDS011;10812;51.838;5.838;2023-07-31T03:30:50;12.67;;;5.83;;
21305;SDS011;10812;51.838;5.838;2023-07-31T03:33:19;17.63;;;5.88;;
21305;SDS011;10812;51.838;5.838;2023-07-31T03:35:47;16.10;;;5.95;;
21305;SDS011;10812;51.838;5.838;2023-07-31T03:38:16;16.50;;;5.60;;
21305;SDS011;10812;51.838;5.838;2023-07-31T03:40:45;13.00;;;5.27;;
21305;SDS011;10812;51.838;5.838;2023-07-31T03:43:13;17.38;;;5.90;;
21305;SDS011;10812;51.838;5.838;2023-07-31T03:45:41;15.95;;;5.90;;
21305;SDS011;10812;51.838;5.838;2023-07-31T03:48:09;15.45;;;5.57;;
21305;SDS011;10812;51.838;5.838;2023-07-31T03:50:37;15.38;;;5.05;;
21305;SDS011;10812;51.838;5.838;2023-07-31T03:53:05;17.73;;;6.45;;
21305;SDS011;10812;51.838;5.838;2023-07-31T03:55:34;14.30;;;6.13;;
21305;SDS011;10812;51.838;5.838;2023-07-31T03:58:02;14.23;;;6.20;;
21305;SDS011;10812;51.838;5.838;2023-07-31T04:00:30;13.63;;;5.30;;
21305;SDS011;10812;51.838;5.838;2023-07-31T04:02:58;14.47;;;5.50;;
21305;SDS011;10812;51.838;5.838;2023-07-31T04:05:27;12.03;;;5.37;;
21305;SDS011;10812;51.838;5.838;2023-07-31T04:07:57;14.63;;;5.63;;
21305;SDS011;10812;51.838;5.838;2023-07-31T04:10:25;15.63;;;5.47;;
21305;SDS011;10812;51.838;5.838;2023-07-31T04:12:54;15.70;;;5.27;;
21305;SDS011;10812;51.838;5.838;2023-07-31T04:15:22;14.27;;;5.50;;
21305;SDS011;10812;51.838;5.838;2023-07-31T04:17:50;10.20;;;5.83;;
21305;SDS011;10812;51.838;5.838;2023-07-31T04:20:18;15.75;;;5.57;;
21305;SDS011;10812;51.838;5.838;2023-07-31T04:22:46;15.73;;;5.70;;
21305;SDS011;10812;51.838;5.838;2023-07-31T04:25:14;14.13;;;5.73;;
21305;SDS011;10812;51.838;5.838;2023-07-31T04:27:42;18.15;;;6.70;;
21305;SDS011;10812;51.838;5.838;2023-07-31T04:30:12;17.83;;;5.97;;
21305;SDS011;10812;51.838;5.838;2023-07-31T04:32:40;13.53;;;5.00;;
21305;SDS011;10812;51.838;5.838;2023-07-31T04:35:08;15.67;;;5.87;;
21305;SDS011;10812;51.838;5.838;2023-07-31T04:37:36;9.17;;;4.83;;
21305;SDS011;10812;51.838;5.838;2023-07-31T04:40:05;12.82;;;5.32;;
21305;SDS011;10812;51.838;5.838;2023-07-31T04:42:34;15.83;;;4.90;;
21305;SDS011;10812;51.838;5.838;2023-07-31T04:45:03;12.30;;;4.93;;
21305;SDS011;10812;51.838;5.838;2023-07-31T04:47:33;10.18;;;5.15;;
21305;SDS011;10812;51.838;5.838;2023-07-31T04:50:01;12.23;;;5.17;;
21305;SDS011;10812;51.838;5.838;2023-07-31T04:52:29;15.10;;;4.67;;
21305;SDS011;10812;51.838;5.838;2023-07-31T04:54:57;9.33;;;4.40;;
21305;SDS011;10812;51.838;5.838;2023-07-31T04:57:25;9.70;;;4.68;;
21305;SDS011;10812;51.838;5.838;2023-07-31T04:59:53;12.83;;;5.30;;
21305;SDS011;10812;51.838;5.838;2023-07-31T05:02:22;8.23;;;4.47;;
21305;SDS011;10812;51.838;5.838;2023-07-31T05:04:52;12.20;;;5.13;;
21305;SDS011;10812;51.838;5.838;2023-07-31T05:07:20;8.95;;;4.50;;
21305;SDS011;10812;51.838;5.838;2023-07-31T05:09:48;11.32;;;4.45;;
21305;SDS011;10812;51.838;5.838;2023-07-31T05:12:16;12.23;;;4.78;;
21305;SDS011;10812;51.838;5.838;2023-07-31T05:14:44;11.65;;;4.45;;
21305;SDS011;10812;51.838;5.838;2023-07-31T05:17:12;10.90;;;4.60;;
21305;SDS011;10812;51.838;5.838;2023-07-31T05:19:40;12.00;;;4.97;;
21305;SDS011;10812;51.838;5.838;2023-07-31T05:22:10;15.15;;;5.40;;
21305;SDS011;10812;51.838;5.838;2023-07-31T05:24:38;12.00;;;4.45;;
21305;SDS011;10812;51.838;5.838;2023-07-31T05:27:06;12.73;;;4.40;;
21305;SDS011;10812;51.838;5.838;2023-07-31T05:29:36;14.40;;;4.55;;
21305;SDS011;10812;51.838;5.838;2023-07-31T05:32:04;10.70;;;4.32;;
21305;SDS011;10812;51.838;5.838;2023-07-31T05:34:33;14.07;;;5.70;;
21305;SDS011;10812;51.838;5.838;2023-07-31T05:37:01;10.25;;;4.30;;
21305;SDS011;10812;51.838;5.838;2023-07-31T05:39:30;17.00;;;5.63;;
21305;SDS011;10812;51.838;5.838;2023-07-31T05:41:58;10.80;;;4.43;;
21305;SDS011;10812;51.838;5.838;2023-07-31T05:44:26;12.85;;;4.47;;
21305;SDS011;10812;51.838;5.838;2023-07-31T05:46:54;12.20;;;4.88;;
21305;SDS011;10812;51.838;5.838;2023-07-31T05:49:23;13.80;;;5.07;;
21305;SDS011;10812;51.838;5.838;2023-07-31T05:51:51;13.75;;;5.13;;
21305;SDS011;10812;51.838;5.838;2023-07-31T05:54:19;13.93;;;6.20;;
21305;SDS011;10812;51.838;5.838;2023-07-31T05:56:49;11.70;;;5.30;;
21305;SDS011;10812;51.838;5.838;2023-07-31T05:59:17;8.67;;;5.03;;
21305;SDS011;10812;51.838;5.838;2023-07-31T06:01:45;9.20;;;4.57;;
21305;SDS011;10812;51.838;5.838;2023-07-31T06:04:13;10.23;;;4.68;;
21305;SDS011;10812;51.838;5.838;2023-07-31T06:06:42;11.95;;;5.07;;
21305;SDS011;10812;51.838;5.838;2023-07-31T06:09:10;9.85;;;5.20;;
21305;SDS011;10812;51.838;5.838;2023-07-31T06:11:38;10.02;;;5.18;;
21305;SDS011;10812;51.838;5.838;2023-07-31T06:14:08;8.20;;;4.65;;
21305;SDS011;10812;51.838;5.838;2023-07-31T06:16:36;10.40;;;5.25;;
21305;SDS011;10812;51.838;5.838;2023-07-31T06:19:04;13.85;;;5.45;;
21305;SDS011;10812;51.838;5.838;2023-07-31T06:21:33;12.13;;;4.93;;
21305;SDS011;10812;51.838;5.838;2023-07-31T06:24:03;11.07;;;5.53;;
21305;SDS011;10812;51.838;5.838;2023-07-31T06:26:32;8.25;;;5.03;;
21305;SDS011;10812;51.838;5.838;2023-07-31T06:29:00;7.87;;;4.13;;
21305;SDS011;10812;51.838;5.838;2023-07-31T06:31:30;11.57;;;4.90;;
21305;SDS011;10812;51.838;5.838;2023-07-31T06:33:58;9.80;;;4.40;;
21305;SDS011;10812;51.838;5.838;2023-07-31T06:36:26;9.02;;;5.00;;
21305;SDS011;10812;51.838;5.838;2023-07-31T06:38:54;8.15;;;4.22;;
21305;SDS011;10812;51.838;5.838;2023-07-31T06:41:22;6.28;;;3.60;;
21305;SDS011;10812;51.838;5.838;2023-07-31T06:43:50;5.70;;;3.33;;
21305;SDS011;10812;51.838;5.838;2023-07-31T06:46:19;5.47;;;3.45;;
21305;SDS011;10812;51.838;5.838;2023-07-31T06:48:48;8.27;;;3.50;;
21305;SDS011;10812;51.838;5.838;2023-07-31T06:51:16;4.85;;;3.10;;
21305;SDS011;10812;51.838;5.838;2023-07-31T06:53:44;4.32;;;2.85;;
21305;SDS011;10812;51.838;5.838;2023-07-31T06:56:12;4.35;;;2.55;;
21305;SDS011;10812;51.838;5.838;2023-07-31T06:58:40;4.70;;;3.13;;
21305;SDS011;10812;51.838;5.838;2023-07-31T07:01:08;3.88;;;2.38;;
21305;SDS011;10812;51.838;5.838;2023-07-31T07:03:36;3.92;;;2.28;;
21305;SDS011;10812;51.838;5.838;2023-07-31T07:06:06;3.60;;;2.13;;
21305;SDS011;10812;51.838;5.838;2023-07-31T07:08:36;4.15;;;2.25;;
21305;SDS011;10812;51.838;5.838;2023-07-31T07:11:04;2.95;;;1.83;;
21305;SDS011;10812;51.838;5.838;2023-07-31T07:13:32;2.72;;;1.70;;
21305;SDS011;10812;51.838;5.838;2023-07-31T07:16:01;2.17;;;1.73;;
21305;SDS011;10812;51.838;5.838;2023-07-31T07:18:29;1.98;;;1.50;;
21305;SDS011;10812;51.838;5.838;2023-07-31T07:20:57;2.70;;;1.40;;
21305;SDS011;10812;51.838;5.838;2023-07-31T07:23:31;2.38;;;1.70;;
21305;SDS011;10812;51.838;5.838;2023-07-31T07:26:01;2.47;;;1.85;;
21305;SDS011;10812;51.838;5.838;2023-07-31T07:28:29;1.70;;;1.40;;
21305;SDS011;10812;51.838;5.838;2023-07-31T07:30:57;2.22;;;1.95;;
21305;SDS011;10812;51.838;5.838;2023-07-31T07:33:28;2.35;;;1.70;;
21305;SDS011;10812;51.838;5.838;2023-07-31T07:35:59;2.83;;;1.88;;
21305;SDS011;10812;51.838;5.838;2023-07-31T07:38:28;1.80;;;1.50;;
21305;SDS011;10812;51.838;5.838;2023-07-31T07:40:57;2.20;;;2.00;;
21305;SDS011;10812;51.838;5.838;2023-07-31T07:43:25;2.10;;;1.58;;
21305;SDS011;10812;51.838;5.838;2023-07-31T07:45:53;2.35;;;1.75;;
21305;SDS011;10812;51.838;5.838;2023-07-31T07:59:58;2.55;;;2.17;;
21305;SDS011;10812;51.838;5.838;2023-07-31T08:02:26;2.20;;;2.00;;
21305;SDS011;10812;51.838;5.838;2023-07-31T08:04:55;2.30;;;2.05;;
21305;SDS011;10812;51.838;5.838;2023-07-31T08:07:23;2.33;;;2.13;;
21305;SDS011;10812;51.838;5.838;2023-07-31T08:09:51;2.90;;;2.60;;
21305;SDS011;10812;51.838;5.838;2023-07-31T08:12:20;2.50;;;2.05;;
21305;SDS011;10812;51.838;5.838;2023-07-31T08:14:48;5.68;;;2.53;;
21305;SDS011;10812;51.838;5.838;2023-07-31T08:17:18;2.88;;;2.60;;
21305;SDS011;10812;51.838;5.838;2023-07-31T08:19:46;3.10;;;2.45;;
21305;SDS011;10812;51.838;5.838;2023-07-31T08:22:14;3.10;;;2.80;;
21305;SDS011;10812;51.838;5.838;2023-07-31T08:24:42;4.72;;;2.63;;
21305;SDS011;10812;51.838;5.838;2023-07-31T08:27:10;3.50;;;2.72;;
21305;SDS011;10812;51.838;5.838;2023-07-31T08:29:38;3.63;;;2.92;;
21305;SDS011;10812;51.838;5.838;2023-07-31T08:32:06;5.72;;;2.60;;
21305;SDS011;10812;51.838;5.838;2023-07-31T08:34:36;3.65;;;2.75;;
21305;SDS011;10812;51.838;5.838;2023-07-31T08:37:04;3.20;;;2.90;;
21305;SDS011;10812;51.838;5.838;2023-07-31T08:39:32;4.38;;;3.00;;
21305;SDS011;10812;51.838;5.838;2023-07-31T08:42:00;3.85;;;3.00;;
21305;SDS011;10812;51.838;5.838;2023-07-31T08:44:29;3.63;;;3.00;;
21305;SDS011;10812;51.838;5.838;2023-07-31T08:46:58;4.75;;;3.17;;
21305;SDS011;10812;51.838;5.838;2023-07-31T08:49:27;5.53;;;3.42;;
21305;SDS011;10812;51.838;5.838;2023-07-31T08:51:59;4.15;;;3.33;;
21305;SDS011;10812;51.838;5.838;2023-07-31T08:54:27;4.60;;;2.60;;
21305;SDS011;10812;51.838;5.838;2023-07-31T08:56:57;6.00;;;3.97;;
21305;SDS011;10812;51.838;5.838;2023-07-31T08:59:27;5.25;;;3.05;;
21305;SDS011;10812;51.838;5.838;2023-07-31T09:01:59;4.13;;;3.72;;
21305;SDS011;10812;51.838;5.838;2023-07-31T09:04:32;3.25;;;2.78;;
21305;SDS011;10812;51.838;5.838;2023-07-31T09:10:44;3.88;;;2.80;;
21305;SDS011;10812;51.838;5.838;2023-07-31T09:13:13;4.97;;;2.80;;
21305;SDS011;10812;51.838;5.838;2023-07-31T09:15:42;6.00;;;2.88;;
21305;SDS011;10812;51.838;5.838;2023-07-31T09:18:12;4.53;;;3.72;;
21305;SDS011;10812;51.838;5.838;2023-07-31T09:20:44;3.63;;;3.28;;
21305;SDS011;10812;51.838;5.838;2023-07-31T09:23:13;3.80;;;3.40;;
21305;SDS011;10812;51.838;5.838;2023-07-31T09:25:44;4.28;;;3.00;;
21305;SDS011;10812;51.838;5.838;2023-07-31T09:28:13;4.72;;;3.30;;
21305;SDS011;10812;51.838;5.838;2023-07-31T09:30:45;4.07;;;3.60;;
21305;SDS011;10812;51.838;5.838;2023-07-31T09:33:15;5.22;;;3.83;;
21305;SDS011;10812;51.838;5.838;2023-07-31T09:35:43;6.72;;;3.88;;
21305;SDS011;10812;51.838;5.838;2023-07-31T09:38:12;5.72;;;4.28;;
21305;SDS011;10812;51.838;5.838;2023-07-31T09:40:41;5.15;;;3.90;;
21305;SDS011;10812;51.838;5.838;2023-07-31T09:43:12;4.93;;;3.63;;
21305;SDS011;10812;51.838;5.838;2023-07-31T09:45:44;5.90;;;4.75;;
21305;SDS011;10812;51.838;5.838;2023-07-31T09:48:13;5.35;;;4.32;;
21305;SDS011;10812;51.838;5.838;2023-07-31T09:50:44;7.35;;;4.53;;
21305;SDS011;10812;51.838;5.838;2023-07-31T09:53:13;6.18;;;5.35;;
21305;SDS011;10812;51.838;5.838;2023-07-31T09:55:41;6.35;;;4.65;;
21305;SDS011;10812;51.838;5.838;2023-07-31T09:58:12;7.95;;;5.90;;
21305;SDS011;10812;51.838;5.838;2023-07-31T10:00:40;5.53;;;4.97;;
21305;SDS011;10812;51.838;5.838;2023-07-31T10:03:09;7.32;;;4.63;;
21305;SDS011;10812;51.838;5.838;2023-07-31T10:05:39;5.82;;;4.78;;
21305;SDS011;10812;51.838;5.838;2023-07-31T10:08:10;6.57;;;5.30;;
21305;SDS011;10812;51.838;5.838;2023-07-31T10:10:44;6.78;;;5.07;;
21305;SDS011;10812;51.838;5.838;2023-07-31T10:13:14;6.53;;;5.20;;
21305;SDS011;10812;51.838;5.838;2023-07-31T10:15:42;6.78;;;5.18;;
21305;SDS011;10812;51.838;5.838;2023-07-31T10:18:11;8.40;;;5.65;;
21305;SDS011;10812;51.838;5.838;2023-07-31T10:20:39;9.20;;;5.65;;
21305;SDS011;10812;51.838;5.838;2023-07-31T10:23:08;6.80;;;5.20;;
21305;SDS011;10812;51.838;5.838;2023-07-31T10:25:37;7.20;;;5.32;;
21305;SDS011;10812;51.838;5.838;2023-07-31T10:28:07;7.32;;;4.50;;
21305;SDS011;10812;51.838;5.838;2023-07-31T10:30:36;5.25;;;4.75;;
21305;SDS011;10812;51.838;5.838;2023-07-31T10:33:06;7.22;;;5.00;;
21305;SDS011;10812;51.838;5.838;2023-07-31T10:35:35;5.65;;;4.60;;
21305;SDS011;10812;51.838;5.838;2023-07-31T10:38:09;6.45;;;4.45;;
21305;SDS011;10812;51.838;5.838;2023-07-31T10:40:38;6.22;;;4.95;;
21305;SDS011;10812;51.838;5.838;2023-07-31T10:43:08;7.18;;;4.32;;
21305;SDS011;10812;51.838;5.838;2023-07-31T10:45:38;6.05;;;4.38;;
21305;SDS011;10812;51.838;5.838;2023-07-31T10:48:12;6.10;;;4.47;;
21305;SDS011;10812;51.838;5.838;2023-07-31T10:50:46;5.80;;;4.40;;
21305;SDS011;10812;51.838;5.838;2023-07-31T10:53:22;5.93;;;4.40;;
21305;SDS011;10812;51.838;5.838;2023-07-31T10:55:51;5.85;;;3.90;;
21305;SDS011;10812;51.838;5.838;2023-07-31T10:58:22;7.55;;;4.10;;
21305;SDS011;10812;51.838;5.838;2023-07-31T11:28:53;6.40;;;3.97;;
21305;SDS011;10812;51.838;5.838;2023-07-31T11:31:21;6.07;;;3.78;;
21305;SDS011;10812;51.838;5.838;2023-07-31T11:33:50;4.30;;;3.88;;
21305;SDS011;10812;51.838;5.838;2023-07-31T11:36:18;5.47;;;3.88;;
21305;SDS011;10812;51.838;5.838;2023-07-31T11:38:47;5.10;;;3.80;;
21305;SDS011;10812;51.838;5.838;2023-07-31T11:41:15;5.00;;;3.40;;
21305;SDS011;10812;51.838;5.838;2023-07-31T11:43:45;6.38;;;3.78;;
21305;SDS011;10812;51.838;5.838;2023-07-31T11:46:14;6.82;;;3.58;;
21305;SDS011;10812;51.838;5.838;2023-07-31T11:48:44;5.95;;;3.83;;
21305;SDS011;10812;51.838;5.838;2023-07-31T11:51:12;7.53;;;3.60;;
21305;SDS011;10812;51.838;5.838;2023-07-31T11:53:42;4.00;;;3.30;;
21305;SDS011;10812;51.838;5.838;2023-07-31T11:56:12;6.15;;;4.15;;
21305;SDS011;10812;51.838;5.838;2023-07-31T11:58:42;6.82;;;3.83;;
21305;SDS011;10812;51.838;5.838;2023-07-31T12:01:14;5.72;;;4.32;;
21305;SDS011;10812;51.838;5.838;2023-07-31T12:03:44;5.05;;;3.67;;
21305;SDS011;10812;51.838;5.838;2023-07-31T12:06:13;4.88;;;4.07;;
21305;SDS011;10812;51.838;5.838;2023-07-31T12:08:42;4.38;;;3.92;;
21305;SDS011;10812;51.838;5.838;2023-07-31T12:11:10;6.00;;;4.50;;
21305;SDS011;10812;51.838;5.838;2023-07-31T12:13:38;7.57;;;4.70;;
21305;SDS011;10812;51.838;5.838;2023-07-31T12:54:56;6.22;;;4.00;;
21305;SDS011;10812;51.838;5.838;2023-07-31T12:57:24;5.03;;;4.10;;
21305;SDS011;10812;51.838;5.838;2023-07-31T12:59:52;6.45;;;4.30;;
21305;SDS011;10812;51.838;5.838;2023-07-31T13:02:20;5.05;;;4.30;;
21305;SDS011;10812;51.838;5.838;2023-07-31T13:04:51;5.80;;;4.15;;
21305;SDS011;10812;51.838;5.838;2023-07-31T13:07:20;5.40;;;3.95;;
21305;SDS011;10812;51.838;5.838;2023-07-31T13:09:50;5.78;;;3.50;;
21305;SDS011;10812;51.838;5.838;2023-07-31T13:12:18;6.78;;;4.05;;
21305;SDS011;10812;51.838;5.838;2023-07-31T13:14:46;5.80;;;4.25;;
21305;SDS011;10812;51.838;5.838;2023-07-31T13:17:18;4.05;;;3.53;;
21305;SDS011;10812;51.838;5.838;2023-07-31T13:19:47;4.38;;;3.90;;
21305;SDS011;10812;51.838;5.838;2023-07-31T13:22:15;6.10;;;3.80;;
21305;SDS011;10812;51.838;5.838;2023-07-31T13:24:43;7.40;;;3.72;;
21305;SDS011;10812;51.838;5.838;2023-07-31T13:27:12;4.70;;;3.85;;
21305;SDS011;10812;51.838;5.838;2023-07-31T13:29:43;5.47;;;4.38;;
21305;SDS011;10812;51.838;5.838;2023-07-31T13:32:11;5.85;;;4.25;;
21305;SDS011;10812;51.838;5.838;2023-07-31T13:34:39;5.60;;;3.60;;
21305;SDS011;10812;51.838;5.838;2023-07-31T13:37:07;5.90;;;3.67;;
21305;SDS011;10812;51.838;5.838;2023-07-31T13:39:35;5.45;;;4.00;;
21305;SDS011;10812;51.838;5.838;2023-07-31T13:42:03;8.93;;;4.07;;
21305;SDS011;10812;51.838;5.838;2023-07-31T13:44:34;5.43;;;4.70;;
21305;SDS011;10812;51.838;5.838;2023-07-31T13:47:05;7.38;;;5.32;;
21305;SDS011;10812;51.838;5.838;2023-07-31T13:49:34;4.80;;;4.28;;
21305;SDS011;10812;51.838;5.838;2023-07-31T13:52:05;6.38;;;4.60;;
21305;SDS011;10812;51.838;5.838;2023-07-31T13:54:33;7.40;;;4.68;;
21305;SDS011;10812;51.838;5.838;2023-07-31T13:57:02;6.78;;;4.75;;
21305;SDS011;10812;51.838;5.838;2023-07-31T13:59:30;5.72;;;4.43;;
21305;SDS011;10812;51.838;5.838;2023-07-31T14:01:59;9.48;;;5.03;;
21305;SDS011;10812;51.838;5.838;2023-07-31T14:04:28;7.72;;;5.10;;
21305;SDS011;10812;51.838;5.838;2023-07-31T14:06:57;5.55;;;4.43;;
21305;SDS011;10812;51.838;5.838;2023-07-31T14:09:27;7.30;;;4.85;;
21305;SDS011;10812;51.838;5.838;2023-07-31T14:11:55;7.57;;;5.38;;
21305;SDS011;10812;51.838;5.838;2023-07-31T14:14:23;10.30;;;5.25;;
21305;SDS011;10812;51.838;5.838;2023-07-31T14:16:51;6.63;;;4.93;;
21305;SDS011;10812;51.838;5.838;2023-07-31T14:26:49;6.10;;;5.05;;
21305;SDS011;10812;51.838;5.838;2023-07-31T14:29:18;7.45;;;4.47;;
21305;SDS011;10812;51.838;5.838;2023-07-31T14:31:46;6.18;;;4.32;;
21305;SDS011;10812;51.838;5.838;2023-07-31T14:34:14;5.60;;;4.53;;
21305;SDS011;10812;51.838;5.838;2023-07-31T14:36:43;8.20;;;5.18;;
21305;SDS011;10812;51.838;5.838;2023-07-31T14:45:53;8.00;;;5.38;;
21305;SDS011;10812;51.838;5.838;2023-07-31T14:48:24;7.90;;;5.20;;
21305;SDS011;10812;51.838;5.838;2023-07-31T14:50:52;9.40;;;5.85;;
21305;SDS011;10812;51.838;5.838;2023-07-31T14:53:20;8.13;;;5.30;;
21305;SDS011;10812;51.838;5.838;2023-07-31T14:55:49;8.52;;;5.78;;
21305;SDS011;10812;51.838;5.838;2023-07-31T14:58:17;10.02;;;5.75;;
21305;SDS011;10812;51.838;5.838;2023-07-31T15:00:46;8.02;;;5.30;;
21305;SDS011;10812;51.838;5.838;2023-07-31T15:03:14;8.82;;;5.53;;
21305;SDS011;10812;51.838;5.838;2023-07-31T15:05:42;9.20;;;5.88;;
21305;SDS011;10812;51.838;5.838;2023-07-31T15:08:11;7.40;;;5.13;;
21305;SDS011;10812;51.838;5.838;2023-07-31T15:45:20;12.85;;;5.55;;
21305;SDS011;10812;51.838;5.838;2023-07-31T15:59:29;6.40;;;3.30;;
21305;SDS011;10812;51.838;5.838;2023-07-31T16:01:59;4.57;;;2.92;;
21305;SDS011;10812;51.838;5.838;2023-07-31T16:04:27;6.70;;;3.25;;
21305;SDS011;10812;51.838;5.838;2023-07-31T16:06:55;5.00;;;3.13;;
21305;SDS011;10812;51.838;5.838;2023-07-31T16:09:23;5.25;;;2.63;;
21305;SDS011;10812;51.838;5.838;2023-07-31T16:15:38;4.85;;;3.10;;
21305;SDS011;10812;51.838;5.838;2023-07-31T16:18:08;4.40;;;2.72;;
21305;SDS011;10812;51.838;5.838;2023-07-31T16:20:36;7.00;;;2.40;;
21305;SDS011;10812;51.838;5.838;2023-07-31T16:23:04;7.50;;;3.15;;
21305;SDS011;10812;51.838;5.838;2023-07-31T16:25:33;4.75;;;2.72;;
21305;SDS011;10812;51.838;5.838;2023-07-31T16:32:07;3.80;;;2.42;;
21305;SDS011;10812;51.838;5.838;2023-07-31T16:34:56;3.30;;;1.83;;
21305;SDS011;10812;51.838;5.838;2023-07-31T16:37:24;11.60;;;7.20;;
21305;SDS011;10812;51.838;5.838;2023-07-31T16:39:53;4.43;;;2.08;;
21305;SDS011;10812;51.838;5.838;2023-07-31T16:42:21;2.85;;;1.90;;
21305;SDS011;10812;51.838;5.838;2023-07-31T16:44:49;3.10;;;2.00;;
21305;SDS011;10812;51.838;5.838;2023-07-31T16:47:18;3.17;;;2.08;;
21305;SDS011;10812;51.838;5.838;2023-07-31T16:49:46;4.07;;;2.42;;
21305;SDS011;10812;51.838;5.838;2023-07-31T16:52:15;2.78;;;1.80;;
21305;SDS011;10812;51.838;5.838;2023-07-31T16:54:44;1.95;;;1.40;;
21305;SDS011;10812;51.838;5.838;2023-07-31T16:57:12;2.80;;;1.50;;
21305;SDS011;10812;51.838;5.838;2023-07-31T16:59:40;2.28;;;1.50;;
21305;SDS011;10812;51.838;5.838;2023-07-31T17:02:08;3.80;;;1.50;;
21305;SDS011;10812;51.838;5.838;2023-07-31T17:04:37;2.53;;;1.85;;
21305;SDS011;10812;51.838;5.838;2023-07-31T17:07:05;2.45;;;1.95;;
21305;SDS011;10812;51.838;5.838;2023-07-31T17:09:34;2.85;;;1.40;;
21305;SDS011;10812;51.838;5.838;2023-07-31T17:12:03;2.22;;;1.30;;
21305;SDS011;10812;51.838;5.838;2023-07-31T17:14:31;3.20;;;1.40;;
21305;SDS011;10812;51.838;5.838;2023-07-31T17:16:59;1.67;;;1.50;;
21305;SDS011;10812;51.838;5.838;2023-07-31T17:19:27;1.77;;;1.40;;
21305;SDS011;10812;51.838;5.838;2023-07-31T17:21:55;2.00;;;1.40;;
21305;SDS011;10812;51.838;5.838;2023-07-31T17:24:23;1.92;;;1.40;;
21305;SDS011;10812;51.838;5.838;2023-07-31T17:26:52;1.88;;;1.38;;
21305;SDS011;10812;51.838;5.838;2023-07-31T17:29:21;2.50;;;1.40;;
21305;SDS011;10812;51.838;5.838;2023-07-31T17:31:58;2.55;;;1.80;;
21305;SDS011;10812;51.838;5.838;2023-07-31T17:34:26;2.35;;;1.58;;
21305;SDS011;10812;51.838;5.838;2023-07-31T17:36:54;1.95;;;1.60;;
21305;SDS011;10812;51.838;5.838;2023-07-31T17:39:22;1.73;;;1.33;;
21305;SDS011;10812;51.838;5.838;2023-07-31T17:41:50;3.22;;;2.53;;